Bad Ischl, Austria
Current Conditions -  °F | °C
As of 11:50 PM on Thursday 23 Oct 2014 (Local Time) from LOWS Reporting Station
Drizzle Drizzle  
Wind Chill: 43°   Ceiling: 1600
Heat Index: 43°   Visibility: 6mi
Dew Point: 41°   Wind: 3mph
Humidity: 93%   Direction: 240°WSW
Pressure: 30.24"   Gusts: NA
Location:  47.72°N, 13.61°E
Report Text: LOWS 232150Z AUTO 24003KT 9999 DZ FEW013 BKN016 06/05 Q1024
Loading
Personal Weather Stations






























Interactive Weather Map
Tropical Storm Tracking
New forecast layout! Learn more

10-Day Weather Forecast

Advertisements
Track Severe Weather on mobile